Time;durP1;ratioP1;P1;durP2;ratioP2;P2;SDS_P1;SDS_P2;PMS_P1;PMS_P2;Temp;Humidity;BMP_temperature;BMP_pressure;BME280_temperature;BME280_humidity;BME280_pressure;Samples;Min_cycle;Max_cycle;Signal;HPM_P1;HPM_P2
2020/12/21 00:00:00;;;;;;;104.15;80.00;;;12.00;99.90;;;;;;4955195;29;20455;-75
2020/12/21 00:02:26;;;;;;;89.72;75.75;;;12.20;99.90;;;;;;4939304;29;20111;-75
2020/12/21 00:04:52;;;;;;;92.70;76.22;;;12.10;99.90;;;;;;4939170;29;20038;-74
2020/12/21 00:07:18;;;;;;;103.25;80.18;;;12.10;99.90;;;;;;4938436;29;20463;-74
2020/12/21 00:09:44;;;;;;;100.80;79.18;;;11.90;99.90;;;;;;4938732;29;20073;-75
2020/12/21 00:12:10;;;;;;;103.07;80.78;;;11.90;99.90;;;;;;4942790;29;20110;-75
2020/12/21 00:14:35;;;;;;;102.45;81.53;;;11.90;99.90;;;;;;4957022;29;20027;-75
2020/12/21 00:17:01;;;;;;;103.80;82.13;;;11.90;99.90;;;;;;4949095;29;20091;-75
2020/12/21 00:19:28;;;;;;;109.72;82.20;;;12.00;99.90;;;;;;4923994;29;20024;-76
2020/12/21 00:21:54;;;;;;;105.30;86.03;;;12.00;99.90;;;;;;4920528;29;20080;-75
2020/12/21 00:24:21;;;;;;;97.32;81.45;;;11.90;99.90;;;;;;4918505;29;20020;-75
2020/12/21 00:26:48;;;;;;;97.90;81.43;;;11.90;99.90;;;;;;4924682;29;20050;-74
2020/12/21 00:29:15;;;;;;;92.15;79.47;;;12.00;99.90;;;;;;4935289;29;20051;-74
2020/12/21 00:31:41;;;;;;;101.13;79.40;;;11.90;99.90;;;;;;4924688;29;20028;-74
2020/12/21 00:34:07;;;;;;;99.40;82.25;;;11.90;99.90;;;;;;4947586;29;20047;-74
2020/12/21 00:36:38;;;;;;;106.80;81.28;;;12.00;99.90;;;;;;4929968;29;20114;-74
2020/12/21 00:39:05;;;;;;;106.05;81.05;;;11.90;99.90;;;;;;4948648;29;20052;-74
2020/12/21 00:41:32;;;;;;;107.25;85.78;;;12.00;99.90;;;;;;4952021;29;20027;-74
2020/12/21 00:43:58;;;;;;;111.97;87.75;;;12.00;99.90;;;;;;4924207;29;20059;-76
2020/12/21 00:46:27;;;;;;;95.60;82.93;;;11.90;99.90;;;;;;4947321;29;20027;-75
2020/12/21 00:48:53;;;;;;;105.22;83.68;;;12.00;99.90;;;;;;4947209;29;20187;-74
2020/12/21 00:51:20;;;;;;;100.65;81.85;;;12.10;99.90;;;;;;4936013;29;20024;-74
2020/12/21 00:53:49;;;;;;;100.13;82.28;;;12.00;99.90;;;;;;4944408;29;20031;-76
2020/12/21 00:56:17;;;;;;;104.22;83.07;;;11.90;99.90;;;;;;4943143;29;20110;-74
2020/12/21 00:58:45;;;;;;;109.53;86.55;;;11.80;99.90;;;;;;4943929;29;20031;-74
2020/12/21 01:01:29;;;;;;;101.32;83.57;;;11.80;99.90;;;;;;4941903;29;20447;-75
2020/12/21 01:03:57;;;;;;;109.90;84.88;;;11.80;99.90;;;;;;4942598;29;20421;-76
2020/12/21 01:06:23;;;;;;;107.32;83.50;;;11.80;99.90;;;;;;4922068;29;20031;-74
2020/12/21 01:08:49;;;;;;;102.85;85.50;;;11.80;99.90;;;;;;4950643;29;20024;-75
2020/12/21 01:11:16;;;;;;;108.35;81.65;;;11.70;99.90;;;;;;4956486;29;20051;-75
2020/12/21 01:13:44;;;;;;;109.60;82.97;;;11.60;99.90;;;;;;4948436;29;20032;-74
2020/12/21 01:16:10;;;;;;;101.35;81.80;;;11.50;99.90;;;;;;4949544;29;20074;-75
2020/12/21 01:18:37;;;;;;;96.82;79.80;;;11.50;99.90;;;;;;4950135;29;20516;-74
2020/12/21 01:21:07;;;;;;;107.75;80.85;;;11.60;99.90;;;;;;4947302;29;20410;-75
2020/12/21 01:23:32;;;;;;;105.80;79.00;;;11.70;99.90;;;;;;4941497;29;20027;-74
2020/12/21 01:25:59;;;;;;;98.75;78.68;;;11.60;99.90;;;;;;4952197;29;20024;-76
2020/12/21 01:28:25;;;;;;;105.45;81.65;;;11.60;99.90;;;;;;4952509;29;20106;-75
2020/12/21 01:30:51;;;;;;;100.00;78.95;;;11.60;99.90;;;;;;4932226;29;20100;-75
2020/12/21 01:33:16;;;;;;;105.10;81.35;;;11.60;99.90;;;;;;4922571;29;20406;-74
2020/12/21 01:35:42;;;;;;;97.93;79.00;;;11.70;99.90;;;;;;4944810;29;20039;-74
2020/12/21 01:38:08;;;;;;;101.70;79.15;;;11.60;99.90;;;;;;4953579;29;20478;-75
2020/12/21 01:40:34;;;;;;;105.63;79.78;;;11.70;99.90;;;;;;4930113;29;20027;-74
2020/12/21 01:42:59;;;;;;;97.75;74.40;;;11.70;99.90;;;;;;4940320;29;20027;-74
2020/12/21 01:45:25;;;;;;;97.95;79.63;;;11.60;99.90;;;;;;4946888;29;20092;-74
2020/12/21 01:47:51;;;;;;;97.50;75.57;;;11.70;99.90;;;;;;4945048;29;20034;-75
2020/12/21 01:50:20;;;;;;;96.95;76.25;;;11.70;99.90;;;;;;4929945;29;20066;-76
2020/12/21 01:52:46;;;;;;;95.97;75.88;;;11.70;99.90;;;;;;4947124;29;20079;-75
2020/12/21 01:55:12;;;;;;;89.88;74.65;;;11.70;99.90;;;;;;4942215;29;20333;-75
2020/12/21 01:57:39;;;;;;;85.38;72.30;;;11.80;99.90;;;;;;4948691;29;20027;-74
2020/12/21 02:00:06;;;;;;;97.30;73.60;;;11.90;99.90;;;;;;4952643;29;20474;-74
2020/12/21 02:02:33;;;;;;;97.55;79.47;;;11.80;99.90;;;;;;4947787;29;20102;-74
2020/12/21 02:04:59;;;;;;;101.28;77.32;;;11.80;99.90;;;;;;4944886;29;20024;-77
2020/12/21 02:07:27;;;;;;;100.70;76.72;;;11.70;99.90;;;;;;4947809;29;20078;-75
2020/12/21 02:09:53;;;;;;;93.28;74.82;;;11.70;99.90;;;;;;4948685;29;20031;-74
2020/12/21 02:12:19;;;;;;;96.85;74.45;;;11.70;99.90;;;;;;4948321;29;20053;-75
2020/12/21 02:14:45;;;;;;;98.45;74.13;;;11.70;99.90;;;;;;4948506;29;20042;-75
2020/12/21 02:17:11;;;;;;;95.93;74.90;;;11.70;99.90;;;;;;4947460;29;20027;-74
2020/12/21 02:19:37;;;;;;;89.40;70.68;;;11.70;99.90;;;;;;4941441;29;20182;-74
2020/12/21 02:22:02;;;;;;;90.05;69.88;;;11.80;99.90;;;;;;4943789;29;20395;-74
2020/12/21 02:24:28;;;;;;;90.20;71.80;;;11.90;99.90;;;;;;4950844;29;20023;-74
2020/12/21 02:26:54;;;;;;;88.85;71.25;;;11.80;99.90;;;;;;4937954;29;20032;-75
2020/12/21 02:29:20;;;;;;;87.53;71.50;;;11.80;99.90;;;;;;4942032;29;20024;-74
2020/12/21 02:31:46;;;;;;;81.38;67.90;;;11.80;99.90;;;;;;4928229;29;20039;-75
2020/12/21 02:34:17;;;;;;;90.93;72.28;;;11.80;99.90;;;;;;4928882;29;20051;-74
2020/12/21 02:36:43;;;;;;;88.40;67.17;;;11.90;99.90;;;;;;4946704;29;20031;-74
2020/12/21 02:39:09;;;;;;;88.38;71.03;;;11.90;99.90;;;;;;4939698;29;20058;-74
2020/12/21 02:41:35;;;;;;;94.22;73.38;;;12.00;99.90;;;;;;4945320;29;20036;-76
2020/12/21 02:44:00;;;;;;;96.10;73.43;;;12.00;99.90;;;;;;4921969;29;20044;-74
2020/12/21 02:46:26;;;;;;;86.28;69.00;;;12.10;99.90;;;;;;4939248;29;20045;-75
2020/12/21 02:48:52;;;;;;;99.30;72.40;;;12.10;99.90;;;;;;4934993;29;20028;-74
2020/12/21 02:51:18;;;;;;;100.22;74.53;;;12.10;99.90;;;;;;4928517;29;20379;-75
2020/12/21 02:53:44;;;;;;;100.50;77.57;;;12.00;99.90;;;;;;4949533;29;20040;-75
2020/12/21 02:56:11;;;;;;;104.07;81.10;;;11.90;99.90;;;;;;4927123;29;20397;-74
2020/12/21 02:58:38;;;;;;;90.35;73.22;;;11.80;99.90;;;;;;4942064;29;20086;-74
2020/12/21 03:01:04;;;;;;;96.75;76.55;;;11.70;99.90;;;;;;4944575;29;20051;-74
2020/12/21 03:03:30;;;;;;;93.00;76.78;;;11.80;99.90;;;;;;4939434;29;20060;-75
2020/12/21 03:05:55;;;;;;;93.63;75.38;;;11.80;99.90;;;;;;4946997;29;20027;-74
2020/12/21 03:08:21;;;;;;;88.25;71.22;;;11.80;99.90;;;;;;4939261;29;20046;-74
2020/12/21 03:10:47;;;;;;;94.85;75.30;;;11.80;99.90;;;;;;4943962;29;20031;-75
2020/12/21 03:13:13;;;;;;;94.10;74.25;;;11.90;99.90;;;;;;4947633;29;20027;-75
2020/12/21 03:15:39;;;;;;;97.88;74.75;;;11.90;99.90;;;;;;4923908;29;20034;-75
2020/12/21 03:18:05;;;;;;;91.38;76.03;;;11.90;99.90;;;;;;4944493;29;20039;-74
2020/12/21 03:20:31;;;;;;;102.07;82.75;;;11.90;99.90;;;;;;4946456;29;20028;-75
2020/12/21 03:22:57;;;;;;;107.30;85.95;;;11.90;99.90;;;;;;4944692;29;20027;-74
2020/12/21 03:25:22;;;;;;;101.50;82.22;;;11.90;99.90;;;;;;4943324;29;20026;-75
2020/12/21 03:27:49;;;;;;;112.32;86.38;;;11.90;99.90;;;;;;4926879;29;20043;-74
2020/12/21 03:30:15;;;;;;;104.97;82.00;;;11.80;99.90;;;;;;4925208;28;20035;-74
2020/12/21 03:32:40;;;;;;;92.47;75.90;;;11.80;99.90;;;;;;4938757;29;20020;-74
2020/12/21 03:35:09;;;;;;;92.60;74.22;;;11.80;99.90;;;;;;4944318;29;20391;-75
2020/12/21 03:37:35;;;;;;;91.75;73.47;;;11.80;99.90;;;;;;4928964;29;20067;-75
2020/12/21 03:40:04;;;;;;;93.03;73.03;;;11.90;99.90;;;;;;4944495;29;20068;-75
2020/12/21 03:42:36;;;;;;;101.15;77.20;;;11.80;99.90;;;;;;4925384;29;20050;-75
2020/12/21 03:45:03;;;;;;;104.65;81.38;;;11.70;99.90;;;;;;4941438;29;20496;-74
2020/12/21 03:47:29;;;;;;;95.28;77.28;;;11.60;99.90;;;;;;4946971;29;20023;-75
2020/12/21 03:49:55;;;;;;;97.85;79.38;;;11.60;99.90;;;;;;4941057;29;20053;-77
2020/12/21 03:52:21;;;;;;;95.85;74.82;;;11.60;99.90;;;;;;4926313;29;20391;-74
2020/12/21 03:54:47;;;;;;;104.57;78.45;;;11.50;99.90;;;;;;4923855;29;20090;-74
2020/12/21 03:57:13;;;;;;;98.28;81.80;;;11.50;99.90;;;;;;4928652;29;20034;-75
2020/12/21 03:59:38;;;;;;;109.05;79.60;;;11.40;99.90;;;;;;4945303;29;20103;-74
2020/12/21 04:02:04;;;;;;;102.40;80.32;;;11.40;99.90;;;;;;4939110;29;20114;-75
2020/12/21 04:04:30;;;;;;;104.03;79.97;;;11.40;99.90;;;;;;4943426;29;20088;-74
2020/12/21 04:06:56;;;;;;;104.50;79.15;;;11.40;99.90;;;;;;4926036;29;20090;-74
2020/12/21 04:09:22;;;;;;;108.30;79.82;;;11.30;99.90;;;;;;4943390;29;20063;-75
2020/12/21 04:11:48;;;;;;;98.47;73.55;;;11.20;99.90;;;;;;4923530;29;20024;-74
2020/12/21 04:14:13;;;;;;;85.05;68.00;;;11.30;99.90;;;;;;4922678;29;20166;-75
2020/12/21 04:16:39;;;;;;;95.50;72.15;;;11.30;99.90;;;;;;4946099;29;20028;-75
2020/12/21 04:19:08;;;;;;;96.57;70.50;;;11.20;99.90;;;;;;4938511;29;20023;-74
2020/12/21 04:21:34;;;;;;;100.07;71.25;;;11.20;99.90;;;;;;4941123;29;20027;-75
2020/12/21 04:23:59;;;;;;;95.93;69.82;;;11.20;99.90;;;;;;4942621;29;20035;-74
2020/12/21 04:26:25;;;;;;;91.63;70.55;;;11.20;99.90;;;;;;4942639;29;20102;-74
2020/12/21 04:28:51;;;;;;;98.95;73.43;;;11.20;99.90;;;;;;4946236;29;20039;-74
2020/12/21 04:31:17;;;;;;;99.72;72.80;;;11.10;99.90;;;;;;4930075;29;20487;-75
2020/12/21 04:33:43;;;;;;;100.50;73.65;;;11.10;99.90;;;;;;4949490;29;20490;-74
2020/12/21 04:36:10;;;;;;;91.63;71.97;;;11.10;99.90;;;;;;4945101;29;20027;-76
2020/12/21 04:38:40;;;;;;;99.72;72.35;;;11.10;99.90;;;;;;4936141;29;20285;-75
2020/12/21 04:41:08;;;;;;;95.90;72.35;;;11.20;99.90;;;;;;4933097;29;20027;-75
2020/12/21 04:43:44;;;;;;;95.28;71.20;;;11.20;99.90;;;;;;4948157;28;20055;-74
2020/12/21 04:46:13;;;;;;;87.22;68.57;;;11.10;99.90;;;;;;4948622;29;20452;-75
2020/12/21 04:48:41;;;;;;;90.70;69.43;;;11.20;99.90;;;;;;4949290;29;20035;-75
2020/12/21 04:51:08;;;;;;;95.53;71.93;;;11.20;99.90;;;;;;4948321;29;20035;-74
2020/12/21 04:53:38;;;;;;;94.22;69.18;;;11.20;99.90;;;;;;4954541;29;20081;-76
2020/12/21 04:56:04;;;;;;;95.07;71.20;;;11.10;99.90;;;;;;4949470;29;20489;-74
2020/12/21 04:58:30;;;;;;;89.32;66.70;;;11.20;99.90;;;;;;4927926;29;20034;-74
2020/12/21 05:00:58;;;;;;;88.35;68.40;;;11.30;99.90;;;;;;4948594;29;20031;-75
2020/12/21 05:03:24;;;;;;;88.65;67.68;;;11.30;99.90;;;;;;4941337;29;20240;-74
2020/12/21 05:05:50;;;;;;;87.35;68.65;;;11.30;99.90;;;;;;4949381;29;20434;-74
2020/12/21 05:08:23;;;;;;;89.47;68.90;;;11.30;99.90;;;;;;4944991;29;20491;-74
2020/12/21 05:11:00;;;;;;;89.20;69.72;;;11.30;99.90;;;;;;4950346;29;20441;-74
2020/12/21 05:13:27;;;;;;;90.05;71.68;;;11.20;99.90;;;;;;4939606;29;20086;-75
2020/12/21 05:15:54;;;;;;;106.45;75.28;;;11.30;99.90;;;;;;4949263;29;20066;-77
2020/12/21 05:18:30;;;;;;;85.50;67.95;;;11.20;99.90;;;;;;4943676;29;20770;-75
2020/12/21 05:21:02;;;;;;;93.78;68.22;;;11.20;99.90;;;;;;4928301;29;20079;-74
2020/12/21 05:23:28;;;;;;;69.57;52.47;;;11.30;99.90;;;;;;4939521;29;20426;-74
2020/12/21 05:26:13;;;;;;;95.57;72.80;;;11.20;99.90;;;;;;4918116;29;20043;-75
2020/12/21 05:28:40;;;;;;;92.97;69.93;;;11.10;99.90;;;;;;4942555;29;20107;-74
2020/12/21 05:31:10;;;;;;;89.45;67.88;;;11.20;99.90;;;;;;4949432;29;20027;-75
2020/12/21 05:33:41;;;;;;;92.78;69.25;;;11.20;99.90;;;;;;4946310;29;20399;-75
2020/12/21 05:36:12;;;;;;;87.38;68.90;;;11.20;99.90;;;;;;4940402;29;20032;-74
2020/12/21 05:38:39;;;;;;;82.57;69.70;;;11.10;99.90;;;;;;4950131;29;20028;-75
2020/12/21 05:41:12;;;;;;;87.63;71.38;;;11.20;99.90;;;;;;4938465;29;20039;-74
2020/12/21 05:43:42;;;;;;;89.05;68.38;;;11.20;99.90;;;;;;4945594;29;20039;-74
2020/12/21 05:46:11;;;;;;;90.50;69.63;;;11.10;99.90;;;;;;4938026;29;20027;-75
2020/12/21 05:48:43;;;;;;;97.00;72.00;;;11.00;99.90;;;;;;4948140;29;20052;-74
2020/12/21 05:51:11;;;;;;;84.65;66.65;;;11.10;99.90;;;;;;4944048;29;20027;-75
2020/12/21 05:53:43;;;;;;;88.75;67.15;;;11.10;99.90;;;;;;4942013;28;20077;-75
2020/12/21 05:56:11;;;;;;;88.03;69.07;;;11.10;99.90;;;;;;4940890;29;20430;-74
2020/12/21 05:58:38;;;;;;;88.90;67.38;;;11.10;99.90;;;;;;4946917;29;20110;-74
2020/12/21 06:01:07;;;;;;;90.95;68.50;;;11.20;99.90;;;;;;4945463;29;20039;-74
2020/12/21 06:03:43;;;;;;;93.25;69.57;;;11.20;99.90;;;;;;4935841;29;20031;-74
2020/12/21 06:06:18;;;;;;;89.78;70.70;;;11.10;99.90;;;;;;4948996;29;20027;-75
2020/12/21 06:08:46;;;;;;;89.03;68.40;;;11.10;99.90;;;;;;4949315;29;20033;-74
2020/12/21 06:11:14;;;;;;;86.65;67.53;;;11.00;99.90;;;;;;4944583;29;20102;-78
2020/12/21 06:13:44;;;;;;;92.47;70.85;;;11.00;99.90;;;;;;4933264;29;20031;-75
2020/12/21 06:16:14;;;;;;;92.57;70.55;;;11.10;99.90;;;;;;4939845;29;20027;-74
2020/12/21 06:18:40;;;;;;;96.95;72.53;;;11.10;99.90;;;;;;4944292;29;20077;-74
2020/12/21 06:21:06;;;;;;;90.40;69.88;;;11.10;99.90;;;;;;4945293;29;20059;-75
2020/12/21 06:23:39;;;;;;;85.60;68.10;;;11.10;99.90;;;;;;4946492;29;20079;-74
2020/12/21 06:26:13;;;;;;;90.13;70.10;;;11.20;99.90;;;;;;4951137;29;20070;-74
2020/12/21 06:28:39;;;;;;;87.95;69.43;;;11.20;99.90;;;;;;4934201;29;20107;-74
2020/12/21 06:31:16;;;;;;;93.57;71.07;;;11.20;99.90;;;;;;4953041;29;20027;-74
2020/12/21 06:33:43;;;;;;;86.85;68.20;;;11.20;99.90;;;;;;4949670;29;20512;-74
2020/12/21 06:36:09;;;;;;;95.82;72.05;;;11.20;99.90;;;;;;4942934;29;20070;-74
2020/12/21 06:39:02;;;;;;;104.20;75.50;;;11.10;99.90;;;;;;4944338;29;20046;-74
2020/12/21 06:41:28;;;;;;;96.45;73.60;;;11.10;99.90;;;;;;4929768;29;20039;-74
2020/12/21 06:44:06;;;;;;;88.93;68.38;;;11.10;99.90;;;;;;4935891;29;20024;-74
2020/12/21 06:46:34;;;;;;;95.68;70.68;;;11.10;99.90;;;;;;4936322;29;20078;-74
2020/12/21 06:49:15;;;;;;;92.85;71.85;;;11.20;99.90;;;;;;4936309;29;20483;-74
2020/12/21 06:51:44;;;;;;;91.43;71.83;;;11.30;99.90;;;;;;4936005;29;20027;-74
2020/12/21 06:54:10;;;;;;;94.05;74.30;;;11.20;99.90;;;;;;4918979;29;20106;-74
2020/12/21 06:56:40;;;;;;;99.72;72.00;;;11.20;99.90;;;;;;4924886;29;20402;-74
2020/12/21 06:59:14;;;;;;;97.97;76.10;;;11.20;99.90;;;;;;4936412;29;20062;-74
2020/12/21 07:01:42;;;;;;;93.43;76.40;;;11.20;99.90;;;;;;4937293;29;20032;-74
2020/12/21 07:04:15;;;;;;;96.03;74.18;;;11.20;99.90;;;;;;4933932;29;20376;-74
2020/12/21 07:06:42;;;;;;;102.18;74.93;;;11.20;99.90;;;;;;4925923;29;20038;-74
2020/12/21 07:09:08;;;;;;;94.03;74.95;;;11.20;99.90;;;;;;4918008;29;20036;-74
2020/12/21 07:11:39;;;;;;;93.45;73.00;;;11.20;99.90;;;;;;4918820;29;20042;-74
2020/12/21 07:14:06;;;;;;;99.45;71.88;;;11.20;99.90;;;;;;4918420;29;20091;-74
2020/12/21 07:16:33;;;;;;;99.45;74.38;;;11.30;99.90;;;;;;4935605;29;20059;-74
2020/12/21 07:18:58;;;;;;;91.32;72.25;;;11.40;99.90;;;;;;4936041;29;20402;-75
2020/12/21 07:21:24;;;;;;;107.03;77.63;;;11.50;99.90;;;;;;4935406;29;20036;-74
2020/12/21 07:23:50;;;;;;;94.30;76.32;;;11.60;99.90;;;;;;4926831;29;20040;-75
2020/12/21 07:26:16;;;;;;;92.65;76.07;;;11.60;99.90;;;;;;4923662;29;20030;-74
2020/12/21 07:28:46;;;;;;;96.03;75.70;;;11.60;99.90;;;;;;4936040;29;20036;-74
2020/12/21 07:31:15;;;;;;;88.80;70.80;;;11.60;99.90;;;;;;4929522;29;20068;-74
2020/12/21 07:33:59;;;;;;;89.28;70.35;;;11.60;99.90;;;;;;4925635;29;20074;-75
2020/12/21 07:36:29;;;;;;;92.35;72.25;;;11.60;99.90;;;;;;4927694;29;20394;-71
2020/12/21 07:39:10;;;;;;;98.03;75.20;;;11.60;99.90;;;;;;4905451;29;20036;-71
2020/12/21 07:41:54;;;;;;;99.40;74.75;;;11.60;99.90;;;;;;4925022;29;20062;-71
2020/12/21 07:44:31;;;;;;;112.25;81.75;;;11.50;99.90;;;;;;4921294;29;20028;-71
2020/12/21 07:47:02;;;;;;;121.03;83.15;;;11.60;99.90;;;;;;4916737;29;20028;-71
2020/12/21 07:49:35;;;;;;;139.65;89.18;;;11.60;99.90;;;;;;4916455;29;20545;-71
2020/12/21 07:52:03;;;;;;;127.38;85.35;;;11.50;99.90;;;;;;4911245;29;20027;-71
2020/12/21 07:54:39;;;;;;;125.07;83.72;;;11.60;99.90;;;;;;4934917;29;20102;-71
2020/12/21 07:57:07;;;;;;;111.25;79.25;;;11.60;99.90;;;;;;4935771;29;20382;-71
2020/12/21 07:59:33;;;;;;;111.55;76.93;;;11.60;99.90;;;;;;4936009;29;20039;-70
2020/12/21 08:02:00;;;;;;;109.75;76.35;;;11.70;99.90;;;;;;4935519;29;20031;-71
2020/12/21 08:04:27;;;;;;;102.07;70.22;;;11.70;99.90;;;;;;4935670;29;20027;-71
2020/12/21 08:07:14;;;;;;;101.25;72.40;;;11.70;99.90;;;;;;4935188;29;20019;-71
2020/12/21 08:09:40;;;;;;;103.00;75.85;;;11.50;99.90;;;;;;4917732;29;20040;-71
2020/12/21 08:12:16;;;;;;;105.35;75.40;;;11.50;99.90;;;;;;4935878;29;20087;-71
2020/12/21 08:14:44;;;;;;;87.35;68.80;;;11.70;99.90;;;;;;4935796;29;20051;-71
2020/12/21 08:17:10;;;;;;;91.30;70.05;;;11.70;99.90;;;;;;4927853;29;20028;-72
2020/12/21 08:19:51;;;;;;;93.28;72.38;;;11.90;99.90;;;;;;4921816;29;20031;-71
2020/12/21 08:22:20;;;;;;;94.47;71.32;;;11.90;99.90;;;;;;4938495;29;20035;-71
2020/12/21 08:25:11;;;;;;;94.25;66.57;;;12.00;99.90;;;;;;4920394;29;20032;-71
2020/12/21 08:27:43;;;;;;;91.10;70.05;;;12.10;99.90;;;;;;4920637;29;21057;-71
2020/12/21 08:30:17;;;;;;;104.45;70.22;;;12.20;99.90;;;;;;4936012;29;20086;-71
2020/12/21 08:32:44;;;;;;;92.63;70.88;;;12.20;99.90;;;;;;4939217;29;20024;-71
2020/12/21 08:35:10;;;;;;;89.93;63.47;;;12.20;99.90;;;;;;4937877;29;20587;-71
2020/12/21 08:37:38;;;;;;;89.63;70.10;;;12.40;99.90;;;;;;4937322;29;20474;-72
2020/12/21 08:40:13;;;;;;;97.35;74.18;;;12.40;99.90;;;;;;4932403;29;20048;-72
2020/12/21 08:42:39;;;;;;;87.88;69.60;;;12.40;99.90;;;;;;4942704;29;20030;-71
2020/12/21 08:45:07;;;;;;;88.65;67.18;;;12.50;99.90;;;;;;4957833;29;20031;-71
2020/12/21 08:47:33;;;;;;;88.60;69.40;;;12.50;99.90;;;;;;4922286;29;20579;-71
2020/12/21 08:50:01;;;;;;;96.72;68.65;;;12.50;99.90;;;;;;4922959;29;20056;-72
2020/12/21 08:52:27;;;;;;;89.60;69.93;;;12.60;99.90;;;;;;4919284;29;20067;-72
2020/12/21 08:54:53;;;;;;;96.65;72.05;;;12.70;99.90;;;;;;4918081;29;20419;-72
2020/12/21 08:57:22;;;;;;;87.25;68.93;;;12.80;99.90;;;;;;4918851;29;20032;-71
2020/12/21 08:59:48;;;;;;;95.78;72.07;;;12.80;99.90;;;;;;4930348;29;20035;-71
2020/12/21 09:02:13;;;;;;;95.32;72.72;;;12.70;99.90;;;;;;4937354;29;20108;-71
2020/12/21 09:04:39;;;;;;;100.10;73.95;;;12.60;99.90;;;;;;4937972;29;20082;-72
2020/12/21 09:07:05;;;;;;;93.63;74.05;;;12.50;99.90;;;;;;4938778;29;20024;-71
2020/12/21 09:09:31;;;;;;;92.82;69.88;;;12.40;99.90;;;;;;4926779;29;20032;-72
2020/12/21 09:11:56;;;;;;;99.85;72.78;;;12.50;99.90;;;;;;4917873;29;20025;-72
2020/12/21 09:14:25;;;;;;;91.28;71.43;;;12.50;99.90;;;;;;4925740;29;20103;-72
2020/12/21 09:16:51;;;;;;;91.53;72.93;;;12.60;99.90;;;;;;4929620;29;20028;-72
2020/12/21 09:19:21;;;;;;;88.28;70.30;;;12.60;99.90;;;;;;4925034;29;20027;-72
2020/12/21 09:21:47;;;;;;;86.50;68.82;;;12.70;99.90;;;;;;4937967;29;20111;-72
2020/12/21 09:24:12;;;;;;;91.60;72.50;;;12.70;99.90;;;;;;4920243;29;20115;-72
2020/12/21 09:26:38;;;;;;;101.85;76.97;;;12.70;99.90;;;;;;4938820;29;20123;-72
2020/12/21 09:29:05;;;;;;;95.63;73.88;;;12.70;99.90;;;;;;4922012;29;20027;-72
2020/12/21 09:31:31;;;;;;;85.90;68.82;;;12.80;99.90;;;;;;4938414;29;20058;-72
2020/12/21 09:33:57;;;;;;;86.88;69.60;;;12.80;99.90;;;;;;4922119;29;20031;-72
2020/12/21 09:36:23;;;;;;;88.32;72.38;;;12.80;99.90;;;;;;4938907;29;20459;-72
2020/12/21 09:38:49;;;;;;;91.38;71.10;;;12.80;99.90;;;;;;4938146;29;20028;-72
2020/12/21 09:41:19;;;;;;;81.25;65.72;;;12.80;99.90;;;;;;4938287;29;20062;-72
2020/12/21 09:43:46;;;;;;;84.82;71.15;;;12.80;99.90;;;;;;4938305;29;20028;-72
2020/12/21 09:46:23;;;;;;;88.70;69.30;;;12.80;99.90;;;;;;4937762;29;20020;-73
2020/12/21 09:48:50;;;;;;;83.18;65.93;;;12.60;99.90;;;;;;4937833;29;20028;-72
2020/12/21 09:51:16;;;;;;;83.32;64.28;;;12.60;99.90;;;;;;4937254;29;20032;-73
2020/12/21 09:53:42;;;;;;;85.20;65.93;;;12.60;99.90;;;;;;4937092;29;20054;-72
2020/12/21 09:56:11;;;;;;;85.63;67.70;;;12.50;99.90;;;;;;4936516;29;20074;-73
2020/12/21 09:58:37;;;;;;;82.57;67.03;;;12.50;99.90;;;;;;4936963;29;20510;-73
2020/12/21 10:01:06;;;;;;;80.97;65.50;;;12.50;99.90;;;;;;4936856;29;20083;-73
2020/12/21 10:03:32;;;;;;;85.70;68.47;;;12.50;99.90;;;;;;4937612;29;20475;-73
2020/12/21 10:05:57;;;;;;;81.90;64.82;;;12.60;99.90;;;;;;4937370;29;20043;-74
2020/12/21 10:08:23;;;;;;;86.22;68.15;;;12.70;99.90;;;;;;4937700;29;20031;-73
2020/12/21 10:10:49;;;;;;;92.57;66.43;;;12.60;99.90;;;;;;4937165;29;20039;-73
2020/12/21 10:13:15;;;;;;;82.20;66.18;;;12.60;99.90;;;;;;4937071;29;20125;-73
2020/12/21 10:15:41;;;;;;;85.93;67.97;;;12.70;99.90;;;;;;4937529;29;20188;-73
2020/12/21 10:18:07;;;;;;;92.97;65.68;;;12.80;99.90;;;;;;4937284;29;20090;-73
2020/12/21 10:20:33;;;;;;;85.45;68.55;;;12.80;99.90;;;;;;4935435;29;20431;-73
2020/12/21 10:23:00;;;;;;;82.55;71.10;;;12.90;99.90;;;;;;4919841;29;20032;-72
2020/12/21 10:25:26;;;;;;;86.35;70.75;;;12.80;99.90;;;;;;4936491;29;20027;-73
2020/12/21 10:27:52;;;;;;;88.80;71.07;;;13.00;99.90;;;;;;4937300;29;20442;-72
2020/12/21 10:30:18;;;;;;;93.38;69.43;;;13.00;99.90;;;;;;4936250;29;20062;-72
2020/12/21 10:32:43;;;;;;;93.93;68.22;;;13.00;99.90;;;;;;4936586;29;20446;-73
2020/12/21 10:35:10;;;;;;;84.15;67.72;;;13.00;99.90;;;;;;4937170;29;20027;-73
2020/12/21 10:37:36;;;;;;;93.32;68.78;;;13.00;99.90;;;;;;4936250;29;20034;-77
2020/12/21 10:40:03;;;;;;;85.70;69.05;;;12.90;99.90;;;;;;4935572;29;20023;-74
2020/12/21 10:42:29;;;;;;;94.57;72.63;;;12.90;99.90;;;;;;4930482;29;20048;-74
2020/12/21 10:44:55;;;;;;;98.20;77.00;;;12.90;99.90;;;;;;4936585;29;20110;-74
2020/12/21 10:47:21;;;;;;;101.55;76.75;;;12.80;99.90;;;;;;4936430;29;20039;-72
2020/12/21 10:49:47;;;;;;;96.95;75.22;;;12.80;99.90;;;;;;4917412;29;20604;-74
2020/12/21 10:52:13;;;;;;;97.38;78.95;;;12.90;99.90;;;;;;4917123;29;20036;-74
2020/12/21 10:54:39;;;;;;;97.32;78.18;;;12.90;99.90;;;;;;4916666;29;20032;-73
2020/12/21 10:57:06;;;;;;;109.13;81.40;;;12.90;99.90;;;;;;4916054;29;20040;-73
2020/12/21 10:59:34;;;;;;;102.90;79.00;;;12.90;99.90;;;;;;4933691;29;20040;-72
2020/12/21 11:02:00;;;;;;;106.78;84.75;;;12.90;99.90;;;;;;4935861;29;20059;-74
2020/12/21 11:04:26;;;;;;;97.22;79.30;;;12.90;99.90;;;;;;4935646;29;20106;-73
2020/12/21 11:06:52;;;;;;;105.82;79.18;;;12.90;99.90;;;;;;4935503;29;20049;-72
2020/12/21 11:09:18;;;;;;;110.72;81.93;;;13.00;99.90;;;;;;4934413;29;20110;-73
2020/12/21 11:11:43;;;;;;;101.78;77.65;;;13.00;99.90;;;;;;4935458;29;20027;-72
2020/12/21 11:14:09;;;;;;;95.07;74.38;;;13.00;99.90;;;;;;4936523;29;20032;-73
2020/12/21 11:16:35;;;;;;;103.00;79.40;;;13.00;99.90;;;;;;4936169;29;20027;-73
2020/12/21 11:19:01;;;;;;;103.97;81.95;;;12.90;99.90;;;;;;4936589;29;20032;-73
2020/12/21 11:21:27;;;;;;;105.53;78.22;;;12.90;99.90;;;;;;4936379;29;20502;-74
2020/12/21 11:23:53;;;;;;;103.95;79.80;;;13.00;99.90;;;;;;4919169;29;20050;-77
2020/12/21 11:26:19;;;;;;;102.70;79.57;;;13.00;99.90;;;;;;4936512;29;20027;-73
2020/12/21 11:28:46;;;;;;;101.57;80.30;;;13.00;99.90;;;;;;4935547;29;20036;-74
2020/12/21 11:31:16;;;;;;;103.65;79.68;;;13.00;99.90;;;;;;4935611;29;20028;-73
2020/12/21 11:33:42;;;;;;;103.15;79.10;;;13.00;99.90;;;;;;4935896;29;20142;-73
2020/12/21 11:36:08;;;;;;;99.78;79.75;;;13.10;99.90;;;;;;4935610;29;20034;-73
2020/12/21 11:38:34;;;;;;;97.78;78.70;;;13.20;99.90;;;;;;4917535;29;20028;-72
2020/12/21 11:41:00;;;;;;;110.13;84.85;;;13.10;99.90;;;;;;4935463;29;20032;-73
2020/12/21 11:43:26;;;;;;;101.10;76.32;;;13.10;99.90;;;;;;4935657;29;20518;-73
2020/12/21 11:45:52;;;;;;;99.53;78.97;;;13.10;99.90;;;;;;4935735;29;20024;-73
2020/12/21 11:48:18;;;;;;;104.85;79.43;;;13.10;99.90;;;;;;4935826;29;20548;-73
2020/12/21 11:50:44;;;;;;;96.78;77.28;;;13.10;99.90;;;;;;4935953;29;20023;-73
2020/12/21 11:53:10;;;;;;;107.38;83.68;;;13.10;99.90;;;;;;4935795;29;20034;-73
2020/12/21 11:55:35;;;;;;;99.60;80.88;;;13.00;99.90;;;;;;4918099;29;20569;-73
2020/12/21 11:58:01;;;;;;;102.10;77.97;;;13.00;99.90;;;;;;4935392;29;20095;-73
2020/12/21 12:00:27;;;;;;;112.57;87.30;;;13.10;99.90;;;;;;4935787;29;20087;-73
2020/12/21 12:02:53;;;;;;;101.45;78.13;;;13.10;99.90;;;;;;4935226;29;20036;-73
2020/12/21 12:05:19;;;;;;;105.22;80.82;;;13.10;99.90;;;;;;4935617;29;20055;-73
2020/12/21 12:07:45;;;;;;;110.03;78.55;;;13.10;99.90;;;;;;4935184;29;20456;-73
2020/12/21 12:10:10;;;;;;;102.38;84.20;;;13.20;99.90;;;;;;4935369;29;20399;-73
2020/12/21 12:12:36;;;;;;;110.93;79.55;;;13.20;99.90;;;;;;4935540;29;20042;-73
2020/12/21 12:15:03;;;;;;;106.68;82.82;;;13.20;99.90;;;;;;4936844;29;20024;-73
2020/12/21 12:17:28;;;;;;;107.72;84.55;;;13.20;99.90;;;;;;4935768;29;20028;-72
2020/12/21 12:19:55;;;;;;;103.53;79.60;;;13.20;99.90;;;;;;4935490;29;20035;-73
2020/12/21 12:22:20;;;;;;;103.88;80.63;;;13.10;99.90;;;;;;4935437;29;20630;-73
2020/12/21 12:24:46;;;;;;;108.28;83.15;;;13.10;99.90;;;;;;4935387;29;20031;-73